sensor_id;sensor_type;location;lat;lon;timestamp;P1;durP1;ratioP1;P2;durP2;ratioP2
13114;SDS011;6623;52.120;8.660;2023-07-02T00:02:16;2.50;;;1.10;;
13114;SDS011;6623;52.120;8.660;2023-07-02T00:04:44;1.55;;;1.00;;
13114;SDS011;6623;52.120;8.660;2023-07-02T00:07:09;1.10;;;1.00;;
13114;SDS011;6623;52.120;8.660;2023-07-02T00:09:35;1.63;;;1.20;;
13114;SDS011;6623;52.120;8.660;2023-07-02T00:12:01;1.40;;;1.10;;
13114;SDS011;6623;52.120;8.660;2023-07-02T00:14:26;1.55;;;0.98;;
13114;SDS011;6623;52.120;8.660;2023-07-02T00:16:52;1.80;;;0.93;;
13114;SDS011;6623;52.120;8.660;2023-07-02T00:19:17;1.65;;;1.00;;
13114;SDS011;6623;52.120;8.660;2023-07-02T00:21:43;1.38;;;0.95;;
13114;SDS011;6623;52.120;8.660;2023-07-02T00:24:08;1.10;;;1.00;;
13114;SDS011;6623;52.120;8.660;2023-07-02T00:26:34;1.45;;;1.20;;
13114;SDS011;6623;52.120;8.660;2023-07-02T00:29:01;1.95;;;1.15;;
13114;SDS011;6623;52.120;8.660;2023-07-02T00:31:28;5.00;;;1.00;;
13114;SDS011;6623;52.120;8.660;2023-07-02T00:33:54;1.25;;;1.15;;
13114;SDS011;6623;52.120;8.660;2023-07-02T00:36:20;1.55;;;1.02;;
13114;SDS011;6623;52.120;8.660;2023-07-02T00:38:46;1.02;;;0.90;;
13114;SDS011;6623;52.120;8.660;2023-07-02T00:41:13;1.25;;;1.10;;
13114;SDS011;6623;52.120;8.660;2023-07-02T00:43:38;1.67;;;1.20;;
13114;SDS011;6623;52.120;8.660;2023-07-02T00:46:14;1.45;;;1.15;;
13114;SDS011;6623;52.120;8.660;2023-07-02T00:48:45;1.45;;;1.10;;
13114;SDS011;6623;52.120;8.660;2023-07-02T00:51:19;2.38;;;1.10;;
13114;SDS011;6623;52.120;8.660;2023-07-02T00:53:46;2.47;;;1.00;;
13114;SDS011;6623;52.120;8.660;2023-07-02T00:56:13;1.98;;;1.15;;
13114;SDS011;6623;52.120;8.660;2023-07-02T00:58:40;1.40;;;1.10;;
13114;SDS011;6623;52.120;8.660;2023-07-02T01:01:11;1.63;;;1.00;;
13114;SDS011;6623;52.120;8.660;2023-07-02T01:06:33;2.00;;;1.13;;
13114;SDS011;6623;52.120;8.660;2023-07-02T01:09:00;1.95;;;1.17;;
13114;SDS011;6623;52.120;8.660;2023-07-02T01:14:02;3.65;;;1.25;;
13114;SDS011;6623;52.120;8.660;2023-07-02T01:16:31;1.63;;;1.00;;
13114;SDS011;6623;52.120;8.660;2023-07-02T01:18:57;2.75;;;1.27;;
13114;SDS011;6623;52.120;8.660;2023-07-02T01:21:28;3.40;;;1.20;;
13114;SDS011;6623;52.120;8.660;2023-07-02T01:23:54;1.13;;;1.03;;
13114;SDS011;6623;52.120;8.660;2023-07-02T01:26:19;2.20;;;1.10;;
13114;SDS011;6623;52.120;8.660;2023-07-02T01:28:45;1.90;;;1.20;;
13114;SDS011;6623;52.120;8.660;2023-07-02T01:31:11;2.45;;;1.00;;
13114;SDS011;6623;52.120;8.660;2023-07-02T01:33:36;1.73;;;1.00;;
13114;SDS011;6623;52.120;8.660;2023-07-02T01:36:02;3.25;;;1.10;;
13114;SDS011;6623;52.120;8.660;2023-07-02T01:38:27;2.83;;;1.10;;
13114;SDS011;6623;52.120;8.660;2023-07-02T01:40:53;1.10;;;1.00;;
13114;SDS011;6623;52.120;8.660;2023-07-02T01:43:18;1.50;;;1.10;;
13114;SDS011;6623;52.120;8.660;2023-07-02T01:45:44;1.95;;;0.95;;
13114;SDS011;6623;52.120;8.660;2023-07-02T01:48:10;2.78;;;1.05;;
13114;SDS011;6623;52.120;8.660;2023-07-02T01:50:35;1.50;;;1.10;;
13114;SDS011;6623;52.120;8.660;2023-07-02T01:53:01;2.05;;;1.10;;
13114;SDS011;6623;52.120;8.660;2023-07-02T01:55:26;3.38;;;1.00;;
13114;SDS011;6623;52.120;8.660;2023-07-02T01:57:52;1.27;;;1.00;;
13114;SDS011;6623;52.120;8.660;2023-07-02T02:00:17;1.85;;;1.20;;
13114;SDS011;6623;52.120;8.660;2023-07-02T02:02:43;2.22;;;1.00;;
13114;SDS011;6623;52.120;8.660;2023-07-02T02:05:09;2.75;;;1.00;;
13114;SDS011;6623;52.120;8.660;2023-07-02T02:07:35;2.35;;;1.13;;
13114;SDS011;6623;52.120;8.660;2023-07-02T02:10:02;2.03;;;1.20;;
13114;SDS011;6623;52.120;8.660;2023-07-02T02:12:29;1.88;;;1.00;;
13114;SDS011;6623;52.120;8.660;2023-07-02T02:14:55;2.00;;;0.90;;
13114;SDS011;6623;52.120;8.660;2023-07-02T02:17:20;2.23;;;1.00;;
13114;SDS011;6623;52.120;8.660;2023-07-02T02:19:46;1.42;;;1.20;;
13114;SDS011;6623;52.120;8.660;2023-07-02T02:22:11;2.22;;;1.10;;
13114;SDS011;6623;52.120;8.660;2023-07-02T02:24:37;1.55;;;0.90;;
13114;SDS011;6623;52.120;8.660;2023-07-02T02:27:02;1.10;;;1.00;;
13114;SDS011;6623;52.120;8.660;2023-07-02T02:29:28;2.13;;;1.13;;
13114;SDS011;6623;52.120;8.660;2023-07-02T02:31:54;3.47;;;1.30;;
13114;SDS011;6623;52.120;8.660;2023-07-02T02:34:19;2.38;;;1.00;;
13114;SDS011;6623;52.120;8.660;2023-07-02T02:36:45;1.60;;;1.02;;
13114;SDS011;6623;52.120;8.660;2023-07-02T02:39:11;1.50;;;0.87;;
13114;SDS011;6623;52.120;8.660;2023-07-02T02:41:37;1.37;;;1.00;;
13114;SDS011;6623;52.120;8.660;2023-07-02T02:44:02;1.17;;;0.90;;
13114;SDS011;6623;52.120;8.660;2023-07-02T02:46:28;1.50;;;1.10;;
13114;SDS011;6623;52.120;8.660;2023-07-02T02:48:53;1.57;;;1.00;;
13114;SDS011;6623;52.120;8.660;2023-07-02T02:51:19;1.63;;;1.10;;
13114;SDS011;6623;52.120;8.660;2023-07-02T02:53:45;2.30;;;1.33;;
13114;SDS011;6623;52.120;8.660;2023-07-02T02:56:11;1.30;;;1.10;;
13114;SDS011;6623;52.120;8.660;2023-07-02T02:58:36;1.38;;;1.02;;
13114;SDS011;6623;52.120;8.660;2023-07-02T03:01:02;1.45;;;1.00;;
13114;SDS011;6623;52.120;8.660;2023-07-02T03:03:33;2.80;;;1.15;;
13114;SDS011;6623;52.120;8.660;2023-07-02T03:06:03;2.15;;;0.98;;
13114;SDS011;6623;52.120;8.660;2023-07-02T03:08:29;1.27;;;1.00;;
13114;SDS011;6623;52.120;8.660;2023-07-02T03:10:55;2.38;;;0.82;;
13114;SDS011;6623;52.120;8.660;2023-07-02T03:13:20;2.37;;;1.20;;
13114;SDS011;6623;52.120;8.660;2023-07-02T03:15:46;4.67;;;1.07;;
13114;SDS011;6623;52.120;8.660;2023-07-02T03:18:11;2.55;;;1.08;;
13114;SDS011;6623;52.120;8.660;2023-07-02T03:20:40;1.65;;;1.17;;
13114;SDS011;6623;52.120;8.660;2023-07-02T03:23:05;1.43;;;1.07;;
13114;SDS011;6623;52.120;8.660;2023-07-02T03:25:31;2.20;;;1.20;;
13114;SDS011;6623;52.120;8.660;2023-07-02T03:27:56;3.03;;;1.33;;
13114;SDS011;6623;52.120;8.660;2023-07-02T03:30:22;1.85;;;1.23;;
13114;SDS011;6623;52.120;8.660;2023-07-02T03:32:47;2.38;;;1.30;;
13114;SDS011;6623;52.120;8.660;2023-07-02T03:35:13;2.47;;;1.20;;
13114;SDS011;6623;52.120;8.660;2023-07-02T03:37:38;1.60;;;1.37;;
13114;SDS011;6623;52.120;8.660;2023-07-02T03:40:06;3.20;;;1.40;;
13114;SDS011;6623;52.120;8.660;2023-07-02T03:42:32;2.17;;;1.38;;
13114;SDS011;6623;52.120;8.660;2023-07-02T03:44:58;1.40;;;1.30;;
13114;SDS011;6623;52.120;8.660;2023-07-02T03:47:24;2.60;;;1.57;;
13114;SDS011;6623;52.120;8.660;2023-07-02T03:49:49;2.03;;;1.70;;
13114;SDS011;6623;52.120;8.660;2023-07-02T03:52:15;3.47;;;1.20;;
13114;SDS011;6623;52.120;8.660;2023-07-02T03:54:41;2.03;;;1.42;;
13114;SDS011;6623;52.120;8.660;2023-07-02T03:57:06;1.85;;;1.48;;
13114;SDS011;6623;52.120;8.660;2023-07-02T03:59:32;1.93;;;1.47;;
13114;SDS011;6623;52.120;8.660;2023-07-02T04:01:59;3.38;;;1.52;;
13114;SDS011;6623;52.120;8.660;2023-07-02T04:04:24;1.92;;;1.40;;
13114;SDS011;6623;52.120;8.660;2023-07-02T04:06:50;2.70;;;1.38;;
13114;SDS011;6623;52.120;8.660;2023-07-02T04:09:15;3.28;;;1.50;;
13114;SDS011;6623;52.120;8.660;2023-07-02T04:11:41;2.27;;;1.67;;
13114;SDS011;6623;52.120;8.660;2023-07-02T04:14:06;1.70;;;1.40;;
13114;SDS011;6623;52.120;8.660;2023-07-02T04:16:32;1.40;;;1.30;;
13114;SDS011;6623;52.120;8.660;2023-07-02T04:18:57;2.88;;;1.95;;
13114;SDS011;6623;52.120;8.660;2023-07-02T04:21:23;3.87;;;1.77;;
13114;SDS011;6623;52.120;8.660;2023-07-02T04:23:48;2.47;;;1.88;;
13114;SDS011;6623;52.120;8.660;2023-07-02T04:26:13;3.05;;;1.70;;
13114;SDS011;6623;52.120;8.660;2023-07-02T04:28:39;3.15;;;1.80;;
13114;SDS011;6623;52.120;8.660;2023-07-02T04:31:05;2.57;;;1.90;;
13114;SDS011;6623;52.120;8.660;2023-07-02T04:33:30;3.47;;;1.83;;
13114;SDS011;6623;52.120;8.660;2023-07-02T04:36:00;3.67;;;1.83;;
13114;SDS011;6623;52.120;8.660;2023-07-02T04:38:27;2.63;;;1.73;;
13114;SDS011;6623;52.120;8.660;2023-07-02T04:40:53;2.30;;;1.83;;
13114;SDS011;6623;52.120;8.660;2023-07-02T04:43:18;2.88;;;1.92;;
13114;SDS011;6623;52.120;8.660;2023-07-02T04:45:44;4.50;;;1.90;;
13114;SDS011;6623;52.120;8.660;2023-07-02T04:48:10;3.00;;;1.90;;
13114;SDS011;6623;52.120;8.660;2023-07-02T04:50:35;2.80;;;1.93;;
13114;SDS011;6623;52.120;8.660;2023-07-02T04:53:01;3.67;;;2.00;;
13114;SDS011;6623;52.120;8.660;2023-07-02T04:55:27;2.90;;;2.00;;
13114;SDS011;6623;52.120;8.660;2023-07-02T04:57:52;5.80;;;2.30;;
13114;SDS011;6623;52.120;8.660;2023-07-02T05:00:18;4.35;;;2.38;;
13114;SDS011;6623;52.120;8.660;2023-07-02T05:02:43;4.00;;;2.10;;
13114;SDS011;6623;52.120;8.660;2023-07-02T05:05:09;4.03;;;2.30;;
13114;SDS011;6623;52.120;8.660;2023-07-02T05:07:34;3.07;;;2.13;;
13114;SDS011;6623;52.120;8.660;2023-07-02T05:10:00;3.20;;;1.98;;
13114;SDS011;6623;52.120;8.660;2023-07-02T05:12:25;4.27;;;2.10;;
13114;SDS011;6623;52.120;8.660;2023-07-02T05:14:51;4.07;;;2.38;;
13114;SDS011;6623;52.120;8.660;2023-07-02T05:17:16;3.47;;;2.05;;
13114;SDS011;6623;52.120;8.660;2023-07-02T05:19:42;7.82;;;2.33;;
13114;SDS011;6623;52.120;8.660;2023-07-02T05:22:08;3.17;;;2.03;;
13114;SDS011;6623;52.120;8.660;2023-07-02T05:24:34;4.43;;;2.30;;
13114;SDS011;6623;52.120;8.660;2023-07-02T05:26:59;3.30;;;2.20;;
13114;SDS011;6623;52.120;8.660;2023-07-02T05:29:25;3.07;;;2.07;;
13114;SDS011;6623;52.120;8.660;2023-07-02T05:31:50;3.17;;;2.20;;
13114;SDS011;6623;52.120;8.660;2023-07-02T05:34:16;3.37;;;2.07;;
13114;SDS011;6623;52.120;8.660;2023-07-02T05:36:41;4.25;;;2.50;;
13114;SDS011;6623;52.120;8.660;2023-07-02T05:39:07;4.37;;;2.23;;
13114;SDS011;6623;52.120;8.660;2023-07-02T05:41:32;3.65;;;1.92;;
13114;SDS011;6623;52.120;8.660;2023-07-02T05:43:58;4.68;;;2.40;;
13114;SDS011;6623;52.120;8.660;2023-07-02T05:46:24;5.03;;;2.70;;
13114;SDS011;6623;52.120;8.660;2023-07-02T05:48:50;2.95;;;2.10;;
13114;SDS011;6623;52.120;8.660;2023-07-02T05:51:22;3.63;;;2.22;;
13114;SDS011;6623;52.120;8.660;2023-07-02T05:53:49;4.20;;;2.30;;
13114;SDS011;6623;52.120;8.660;2023-07-02T05:56:16;3.40;;;2.50;;
13114;SDS011;6623;52.120;8.660;2023-07-02T05:58:41;4.63;;;2.42;;
13114;SDS011;6623;52.120;8.660;2023-07-02T06:01:07;4.63;;;2.50;;
13114;SDS011;6623;52.120;8.660;2023-07-02T06:03:33;3.97;;;2.65;;
13114;SDS011;6623;52.120;8.660;2023-07-02T06:05:58;6.03;;;3.08;;
13114;SDS011;6623;52.120;8.660;2023-07-02T06:08:24;4.23;;;2.60;;
13114;SDS011;6623;52.120;8.660;2023-07-02T06:10:49;5.07;;;2.60;;
13114;SDS011;6623;52.120;8.660;2023-07-02T06:13:15;3.90;;;2.42;;
13114;SDS011;6623;52.120;8.660;2023-07-02T06:15:41;4.05;;;2.47;;
13114;SDS011;6623;52.120;8.660;2023-07-02T06:18:07;3.65;;;2.63;;
13114;SDS011;6623;52.120;8.660;2023-07-02T06:20:33;3.78;;;2.63;;
13114;SDS011;6623;52.120;8.660;2023-07-02T06:22:58;4.60;;;2.60;;
13114;SDS011;6623;52.120;8.660;2023-07-02T06:25:24;4.15;;;2.42;;
13114;SDS011;6623;52.120;8.660;2023-07-02T06:27:49;3.88;;;2.80;;
13114;SDS011;6623;52.120;8.660;2023-07-02T06:30:15;5.03;;;3.10;;
13114;SDS011;6623;52.120;8.660;2023-07-02T06:32:41;4.93;;;2.80;;
13114;SDS011;6623;52.120;8.660;2023-07-02T06:35:06;4.47;;;2.90;;
13114;SDS011;6623;52.120;8.660;2023-07-02T06:37:32;5.45;;;3.03;;
13114;SDS011;6623;52.120;8.660;2023-07-02T06:39:58;4.82;;;3.35;;
13114;SDS011;6623;52.120;8.660;2023-07-02T06:42:24;4.77;;;2.70;;
13114;SDS011;6623;52.120;8.660;2023-07-02T06:44:50;4.53;;;2.80;;
13114;SDS011;6623;52.120;8.660;2023-07-02T06:47:16;5.23;;;3.10;;
13114;SDS011;6623;52.120;8.660;2023-07-02T06:49:42;5.37;;;2.83;;
13114;SDS011;6623;52.120;8.660;2023-07-02T06:52:07;4.90;;;3.00;;
13114;SDS011;6623;52.120;8.660;2023-07-02T06:54:33;4.20;;;2.83;;
13114;SDS011;6623;52.120;8.660;2023-07-02T06:56:59;5.32;;;3.42;;
13114;SDS011;6623;52.120;8.660;2023-07-02T06:59:24;3.93;;;2.80;;
13114;SDS011;6623;52.120;8.660;2023-07-02T07:01:50;5.57;;;3.30;;
13114;SDS011;6623;52.120;8.660;2023-07-02T07:04:16;5.00;;;3.23;;
13114;SDS011;6623;52.120;8.660;2023-07-02T07:06:42;6.78;;;3.42;;
13114;SDS011;6623;52.120;8.660;2023-07-02T07:09:07;6.15;;;3.42;;
13114;SDS011;6623;52.120;8.660;2023-07-02T07:11:33;5.67;;;3.37;;
13114;SDS011;6623;52.120;8.660;2023-07-02T07:13:59;6.00;;;3.60;;
13114;SDS011;6623;52.120;8.660;2023-07-02T07:16:24;6.25;;;3.65;;
13114;SDS011;6623;52.120;8.660;2023-07-02T07:18:50;6.03;;;3.60;;
13114;SDS011;6623;52.120;8.660;2023-07-02T07:21:16;5.45;;;3.35;;
13114;SDS011;6623;52.120;8.660;2023-07-02T07:23:41;7.97;;;4.00;;
13114;SDS011;6623;52.120;8.660;2023-07-02T07:26:07;7.43;;;3.55;;
13114;SDS011;6623;52.120;8.660;2023-07-02T07:28:32;5.23;;;3.47;;
13114;SDS011;6623;52.120;8.660;2023-07-02T07:30:58;7.13;;;3.77;;
13114;SDS011;6623;52.120;8.660;2023-07-02T07:33:23;6.18;;;3.42;;
13114;SDS011;6623;52.120;8.660;2023-07-02T07:35:49;6.40;;;3.47;;
13114;SDS011;6623;52.120;8.660;2023-07-02T07:38:14;5.77;;;3.70;;
13114;SDS011;6623;52.120;8.660;2023-07-02T07:40:40;6.40;;;3.53;;
13114;SDS011;6623;52.120;8.660;2023-07-02T07:43:06;5.97;;;3.60;;
13114;SDS011;6623;52.120;8.660;2023-07-02T07:45:32;15.63;;;5.75;;
13114;SDS011;6623;52.120;8.660;2023-07-02T07:47:58;15.52;;;5.63;;
13114;SDS011;6623;52.120;8.660;2023-07-02T07:50:23;11.35;;;5.18;;
13114;SDS011;6623;52.120;8.660;2023-07-02T07:52:49;13.80;;;5.77;;
13114;SDS011;6623;52.120;8.660;2023-07-02T07:55:16;12.97;;;5.80;;
13114;SDS011;6623;52.120;8.660;2023-07-02T07:57:41;8.48;;;4.80;;
13114;SDS011;6623;52.120;8.660;2023-07-02T08:00:07;10.52;;;5.10;;
13114;SDS011;6623;52.120;8.660;2023-07-02T08:02:34;10.70;;;5.20;;
13114;SDS011;6623;52.120;8.660;2023-07-02T08:05:00;8.37;;;5.03;;
13114;SDS011;6623;52.120;8.660;2023-07-02T08:07:26;10.70;;;5.07;;
13114;SDS011;6623;52.120;8.660;2023-07-02T08:09:52;8.90;;;5.00;;
13114;SDS011;6623;52.120;8.660;2023-07-02T08:12:17;10.33;;;5.03;;
13114;SDS011;6623;52.120;8.660;2023-07-02T08:14:43;9.47;;;4.87;;
13114;SDS011;6623;52.120;8.660;2023-07-02T08:17:08;7.80;;;4.50;;
13114;SDS011;6623;52.120;8.660;2023-07-02T08:19:33;9.37;;;5.17;;
13114;SDS011;6623;52.120;8.660;2023-07-02T08:21:59;10.10;;;5.37;;
13114;SDS011;6623;52.120;8.660;2023-07-02T08:24:24;8.23;;;4.90;;
13114;SDS011;6623;52.120;8.660;2023-07-02T08:26:50;9.07;;;4.80;;
13114;SDS011;6623;52.120;8.660;2023-07-02T08:29:16;9.63;;;5.35;;
13114;SDS011;6623;52.120;8.660;2023-07-02T08:31:41;10.18;;;4.95;;
13114;SDS011;6623;52.120;8.660;2023-07-02T08:34:08;10.18;;;5.03;;
13114;SDS011;6623;52.120;8.660;2023-07-02T08:36:33;10.17;;;4.80;;
13114;SDS011;6623;52.120;8.660;2023-07-02T08:38:59;9.60;;;4.73;;
13114;SDS011;6623;52.120;8.660;2023-07-02T08:41:24;9.03;;;4.50;;
13114;SDS011;6623;52.120;8.660;2023-07-02T08:43:50;9.02;;;5.03;;
13114;SDS011;6623;52.120;8.660;2023-07-02T08:46:20;10.47;;;5.27;;
13114;SDS011;6623;52.120;8.660;2023-07-02T08:48:46;8.73;;;5.33;;
13114;SDS011;6623;52.120;8.660;2023-07-02T08:51:12;8.90;;;4.90;;
13114;SDS011;6623;52.120;8.660;2023-07-02T08:53:38;8.37;;;4.37;;
13114;SDS011;6623;52.120;8.660;2023-07-02T08:56:03;10.00;;;4.90;;
13114;SDS011;6623;52.120;8.660;2023-07-02T08:58:29;10.47;;;5.37;;
13114;SDS011;6623;52.120;8.660;2023-07-02T09:01:05;7.73;;;4.53;;
13114;SDS011;6623;52.120;8.660;2023-07-02T09:03:32;8.77;;;4.70;;
13114;SDS011;6623;52.120;8.660;2023-07-02T09:05:58;9.57;;;4.70;;
13114;SDS011;6623;52.120;8.660;2023-07-02T09:08:24;7.30;;;4.60;;
13114;SDS011;6623;52.120;8.660;2023-07-02T09:10:50;9.67;;;4.80;;
13114;SDS011;6623;52.120;8.660;2023-07-02T09:13:15;7.10;;;4.57;;
13114;SDS011;6623;52.120;8.660;2023-07-02T09:15:41;8.77;;;5.17;;
13114;SDS011;6623;52.120;8.660;2023-07-02T09:18:20;8.93;;;5.00;;
13114;SDS011;6623;52.120;8.660;2023-07-02T09:20:49;7.93;;;4.33;;
13114;SDS011;6623;52.120;8.660;2023-07-02T09:23:16;9.27;;;5.03;;
13114;SDS011;6623;52.120;8.660;2023-07-02T09:25:41;7.40;;;4.97;;
13114;SDS011;6623;52.120;8.660;2023-07-02T09:28:17;9.10;;;4.73;;
13114;SDS011;6623;52.120;8.660;2023-07-02T09:33:16;6.97;;;4.47;;
13114;SDS011;6623;52.120;8.660;2023-07-02T09:35:42;7.03;;;4.40;;
13114;SDS011;6623;52.120;8.660;2023-07-02T09:38:09;8.57;;;4.70;;
13114;SDS011;6623;52.120;8.660;2023-07-02T09:40:35;8.33;;;4.60;;
13114;SDS011;6623;52.120;8.660;2023-07-02T09:43:08;8.90;;;4.90;;
13114;SDS011;6623;52.120;8.660;2023-07-02T09:45:34;7.60;;;4.60;;
13114;SDS011;6623;52.120;8.660;2023-07-02T09:48:00;7.30;;;4.40;;
13114;SDS011;6623;52.120;8.660;2023-07-02T09:50:26;6.53;;;4.27;;
13114;SDS011;6623;52.120;8.660;2023-07-02T09:52:53;9.87;;;4.50;;
13114;SDS011;6623;52.120;8.660;2023-07-02T09:55:19;9.40;;;4.60;;
13114;SDS011;6623;52.120;8.660;2023-07-02T09:57:46;7.80;;;4.50;;
13114;SDS011;6623;52.120;8.660;2023-07-02T10:00:12;7.87;;;4.43;;
13114;SDS011;6623;52.120;8.660;2023-07-02T10:02:39;7.80;;;4.50;;
13114;SDS011;6623;52.120;8.660;2023-07-02T10:05:05;6.53;;;4.40;;
13114;SDS011;6623;52.120;8.660;2023-07-02T10:07:31;8.73;;;4.88;;
13114;SDS011;6623;52.120;8.660;2023-07-02T10:09:59;7.87;;;4.40;;
13114;SDS011;6623;52.120;8.660;2023-07-02T10:12:26;10.00;;;5.00;;
13114;SDS011;6623;52.120;8.660;2023-07-02T10:14:54;6.40;;;4.23;;
13114;SDS011;6623;52.120;8.660;2023-07-02T10:19:57;6.73;;;4.43;;
13114;SDS011;6623;52.120;8.660;2023-07-02T10:22:41;7.77;;;4.30;;
13114;SDS011;6623;52.120;8.660;2023-07-02T10:25:08;16.00;;;5.17;;
13114;SDS011;6623;52.120;8.660;2023-07-02T10:27:35;8.43;;;4.67;;
13114;SDS011;6623;52.120;8.660;2023-07-02T10:30:02;7.90;;;4.53;;
13114;SDS011;6623;52.120;8.660;2023-07-02T10:32:29;7.17;;;4.17;;
13114;SDS011;6623;52.120;8.660;2023-07-02T10:34:54;7.23;;;4.20;;
13114;SDS011;6623;52.120;8.660;2023-07-02T10:37:20;9.17;;;4.30;;
13114;SDS011;6623;52.120;8.660;2023-07-02T10:39:46;7.67;;;4.50;;
13114;SDS011;6623;52.120;8.660;2023-07-02T10:42:12;9.93;;;4.60;;
13114;SDS011;6623;52.120;8.660;2023-07-02T10:44:47;12.13;;;4.50;;
13114;SDS011;6623;52.120;8.660;2023-07-02T10:47:14;7.00;;;4.40;;
13114;SDS011;6623;52.120;8.660;2023-07-02T10:49:40;6.63;;;4.00;;
13114;SDS011;6623;52.120;8.660;2023-07-02T10:52:06;7.40;;;3.87;;
13114;SDS011;6623;52.120;8.660;2023-07-02T10:54:42;6.38;;;3.97;;
13114;SDS011;6623;52.120;8.660;2023-07-02T10:57:09;6.03;;;4.20;;
13114;SDS011;6623;52.120;8.660;2023-07-02T10:59:37;5.93;;;3.57;;
13114;SDS011;6623;52.120;8.660;2023-07-02T11:02:03;5.97;;;3.83;;
13114;SDS011;6623;52.120;8.660;2023-07-02T11:04:32;5.67;;;3.63;;
13114;SDS011;6623;52.120;8.660;2023-07-02T11:06:58;6.17;;;3.70;;
13114;SDS011;6623;52.120;8.660;2023-07-02T11:09:25;8.13;;;4.10;;
13114;SDS011;6623;52.120;8.660;2023-07-02T11:11:55;6.43;;;4.00;;
13114;SDS011;6623;52.120;8.660;2023-07-02T11:14:27;8.00;;;3.90;;
13114;SDS011;6623;52.120;8.660;2023-07-02T11:16:56;6.20;;;4.00;;
13114;SDS011;6623;52.120;8.660;2023-07-02T11:19:21;6.47;;;3.77;;
13114;SDS011;6623;52.120;8.660;2023-07-02T11:21:51;5.93;;;4.20;;
13114;SDS011;6623;52.120;8.660;2023-07-02T11:24:25;6.83;;;3.90;;
13114;SDS011;6623;52.120;8.660;2023-07-02T11:27:02;7.33;;;4.07;;
13114;SDS011;6623;52.120;8.660;2023-07-02T11:29:29;6.57;;;4.23;;
13114;SDS011;6623;52.120;8.660;2023-07-02T11:32:04;6.57;;;3.87;;
13114;SDS011;6623;52.120;8.660;2023-07-02T11:34:30;5.87;;;3.90;;
13114;SDS011;6623;52.120;8.660;2023-07-02T11:36:56;7.67;;;3.93;;
13114;SDS011;6623;52.120;8.660;2023-07-02T11:39:21;8.47;;;4.07;;
13114;SDS011;6623;52.120;8.660;2023-07-02T11:41:47;5.80;;;3.90;;
13114;SDS011;6623;52.120;8.660;2023-07-02T11:44:13;10.07;;;4.20;;
13114;SDS011;6623;52.120;8.660;2023-07-02T11:46:39;7.37;;;3.77;;
13114;SDS011;6623;52.120;8.660;2023-07-02T11:49:04;7.50;;;4.27;;
13114;SDS011;6623;52.120;8.660;2023-07-02T11:51:30;6.70;;;4.10;;
13114;SDS011;6623;52.120;8.660;2023-07-02T11:53:56;6.77;;;4.03;;
13114;SDS011;6623;52.120;8.660;2023-07-02T11:56:22;6.27;;;3.97;;
13114;SDS011;6623;52.120;8.660;2023-07-02T11:58:48;7.37;;;3.97;;
13114;SDS011;6623;52.120;8.660;2023-07-02T12:01:13;6.97;;;3.70;;
13114;SDS011;6623;52.120;8.660;2023-07-02T12:03:39;6.67;;;4.00;;
13114;SDS011;6623;52.120;8.660;2023-07-02T12:06:04;7.17;;;3.77;;
13114;SDS011;6623;52.120;8.660;2023-07-02T12:08:30;5.87;;;3.83;;
13114;SDS011;6623;52.120;8.660;2023-07-02T12:10:56;6.17;;;3.83;;
13114;SDS011;6623;52.120;8.660;2023-07-02T12:13:21;6.03;;;3.60;;
13114;SDS011;6623;52.120;8.660;2023-07-02T12:15:47;6.10;;;4.00;;
13114;SDS011;6623;52.120;8.660;2023-07-02T12:18:13;9.03;;;4.37;;
13114;SDS011;6623;52.120;8.660;2023-07-02T12:20:41;8.10;;;4.30;;
13114;SDS011;6623;52.120;8.660;2023-07-02T12:23:07;5.30;;;3.80;;
13114;SDS011;6623;52.120;8.660;2023-07-02T12:25:32;6.33;;;4.17;;
13114;SDS011;6623;52.120;8.660;2023-07-02T12:27:58;5.57;;;3.47;;
13114;SDS011;6623;52.120;8.660;2023-07-02T12:30:23;6.63;;;3.97;;
13114;SDS011;6623;52.120;8.660;2023-07-02T12:32:49;5.57;;;3.70;;
13114;SDS011;6623;52.120;8.660;2023-07-02T12:35:14;9.13;;;3.70;;
13114;SDS011;6623;52.120;8.660;2023-07-02T12:37:47;6.10;;;3.90;;
13114;SDS011;6623;52.120;8.660;2023-07-02T12:40:14;6.40;;;3.57;;
13114;SDS011;6623;52.120;8.660;2023-07-02T12:42:40;5.67;;;3.50;;
13114;SDS011;6623;52.120;8.660;2023-07-02T12:45:07;6.13;;;3.60;;
13114;SDS011;6623;52.120;8.660;2023-07-02T12:47:33;5.50;;;3.70;;
13114;SDS011;6623;52.120;8.660;2023-07-02T12:49:59;6.83;;;4.03;;
13114;SDS011;6623;52.120;8.660;2023-07-02T12:52:24;7.87;;;3.50;;
13114;SDS011;6623;52.120;8.660;2023-07-02T12:54:50;6.13;;;3.43;;
13114;SDS011;6623;52.120;8.660;2023-07-02T12:57:16;6.83;;;3.67;;
13114;SDS011;6623;52.120;8.660;2023-07-02T12:59:42;6.33;;;3.60;;
13114;SDS011;6623;52.120;8.660;2023-07-02T13:02:09;5.00;;;3.30;;
13114;SDS011;6623;52.120;8.660;2023-07-02T13:04:35;5.37;;;3.47;;
13114;SDS011;6623;52.120;8.660;2023-07-02T13:07:00;5.55;;;3.45;;
13114;SDS011;6623;52.120;8.660;2023-07-02T13:09:26;5.20;;;3.38;;
13114;SDS011;6623;52.120;8.660;2023-07-02T13:11:51;4.27;;;3.17;;
13114;SDS011;6623;52.120;8.660;2023-07-02T13:14:17;5.30;;;3.63;;
13114;SDS011;6623;52.120;8.660;2023-07-02T13:16:42;5.97;;;3.60;;
13114;SDS011;6623;52.120;8.660;2023-07-02T13:19:08;5.77;;;3.40;;
13114;SDS011;6623;52.120;8.660;2023-07-02T13:21:33;5.73;;;3.27;;
13114;SDS011;6623;52.120;8.660;2023-07-02T13:23:59;5.37;;;3.00;;
13114;SDS011;6623;52.120;8.660;2023-07-02T13:26:24;5.00;;;3.17;;
13114;SDS011;6623;52.120;8.660;2023-07-02T13:28:50;4.80;;;3.40;;
13114;SDS011;6623;52.120;8.660;2023-07-02T13:31:15;6.17;;;3.50;;
13114;SDS011;6623;52.120;8.660;2023-07-02T13:33:41;5.40;;;3.30;;
13114;SDS011;6623;52.120;8.660;2023-07-02T13:36:07;4.77;;;3.50;;
13114;SDS011;6623;52.120;8.660;2023-07-02T13:38:33;5.23;;;3.20;;
13114;SDS011;6623;52.120;8.660;2023-07-02T13:40:59;5.33;;;3.30;;
13114;SDS011;6623;52.120;8.660;2023-07-02T13:43:24;5.30;;;3.03;;
13114;SDS011;6623;52.120;8.660;2023-07-02T13:45:50;4.07;;;3.03;;
13114;SDS011;6623;52.120;8.660;2023-07-02T13:48:15;4.97;;;3.20;;
13114;SDS011;6623;52.120;8.660;2023-07-02T13:50:41;3.87;;;2.90;;
13114;SDS011;6623;52.120;8.660;2023-07-02T13:53:07;5.17;;;3.07;;
13114;SDS011;6623;52.120;8.660;2023-07-02T13:55:33;6.10;;;3.37;;
13114;SDS011;6623;52.120;8.660;2023-07-02T13:57:59;4.95;;;3.25;;
13114;SDS011;6623;52.120;8.660;2023-07-02T14:00:25;4.83;;;3.10;;
13114;SDS011;6623;52.120;8.660;2023-07-02T14:02:54;4.07;;;2.73;;
13114;SDS011;6623;52.120;8.660;2023-07-02T14:05:20;5.23;;;3.07;;
13114;SDS011;6623;52.120;8.660;2023-07-02T14:07:46;4.13;;;2.90;;
13114;SDS011;6623;52.120;8.660;2023-07-02T14:10:12;5.30;;;2.87;;
13114;SDS011;6623;52.120;8.660;2023-07-02T14:12:39;5.23;;;3.20;;
13114;SDS011;6623;52.120;8.660;2023-07-02T14:15:06;4.47;;;3.10;;
13114;SDS011;6623;52.120;8.660;2023-07-02T14:17:32;5.07;;;3.27;;
13114;SDS011;6623;52.120;8.660;2023-07-02T14:19:57;5.28;;;3.35;;
13114;SDS011;6623;52.120;8.660;2023-07-02T14:22:23;3.33;;;2.60;;
13114;SDS011;6623;52.120;8.660;2023-07-02T14:24:48;4.40;;;3.03;;
13114;SDS011;6623;52.120;8.660;2023-07-02T14:27:14;4.00;;;2.70;;
13114;SDS011;6623;52.120;8.660;2023-07-02T14:29:39;4.37;;;3.03;;
13114;SDS011;6623;52.120;8.660;2023-07-02T14:32:05;4.03;;;2.90;;
13114;SDS011;6623;52.120;8.660;2023-07-02T14:34:31;4.43;;;2.80;;
13114;SDS011;6623;52.120;8.660;2023-07-02T14:36:57;3.33;;;2.57;;
13114;SDS011;6623;52.120;8.660;2023-07-02T14:39:23;3.97;;;2.70;;
13114;SDS011;6623;52.120;8.660;2023-07-02T14:41:49;4.20;;;2.80;;
13114;SDS011;6623;52.120;8.660;2023-07-02T14:44:15;3.57;;;2.77;;
13114;SDS011;6623;52.120;8.660;2023-07-02T14:46:40;4.30;;;2.70;;
13114;SDS011;6623;52.120;8.660;2023-07-02T14:49:07;5.57;;;3.20;;
13114;SDS011;6623;52.120;8.660;2023-07-02T14:51:33;4.10;;;2.77;;
13114;SDS011;6623;52.120;8.660;2023-07-02T14:53:58;4.10;;;2.90;;
13114;SDS011;6623;52.120;8.660;2023-07-02T14:56:26;4.13;;;2.60;;
13114;SDS011;6623;52.120;8.660;2023-07-02T14:58:51;3.57;;;2.30;;
13114;SDS011;6623;52.120;8.660;2023-07-02T15:01:17;4.30;;;2.80;;
13114;SDS011;6623;52.120;8.660;2023-07-02T15:03:43;4.50;;;2.90;;
13114;SDS011;6623;52.120;8.660;2023-07-02T15:06:10;3.30;;;2.37;;